Station: EHBK - 12/12/2019 21:55Z (il y a 22 minutes)
EHBK 122155Z AUTO 18015KT 140V220 9999 FEW046 05/01 Q0985
Vent du 180º - 15 kt (vent de direction variable de 140º à 220º)
Visibilité > 10 km
Nuages épars à 4600 pieds
Température: +05ºC - Point de rosée: +01ºC - QNH: 985 hPa